createdAt,value
2018-07-27T00:00:02.975Z,23.96
2018-07-27T00:01:13.054Z,23.96
2018-07-27T00:02:22.878Z,24.02
2018-07-27T00:03:32.950Z,23.96
2018-07-27T00:04:43.019Z,23.9
2018-07-27T00:05:53.090Z,23.87
2018-07-27T00:07:03.163Z,24
2018-07-27T00:08:13.225Z,23.97
2018-07-27T00:09:23.038Z,23.97
2018-07-27T00:10:32.882Z,23.9
2018-07-27T00:11:42.962Z,23.94
2018-07-27T00:12:53.049Z,24.04
2018-07-27T00:14:03.109Z,23.99
2018-07-27T00:15:13.184Z,23.96
2018-07-27T00:16:22.751Z,24.04
2018-07-27T00:17:32.819Z,24.04
2018-07-27T00:18:42.950Z,24
2018-07-27T00:19:53.013Z,23.96
2018-07-27T00:21:03.090Z,23.94
2018-07-27T00:22:12.906Z,23.82
2018-07-27T00:23:22.978Z,23.89
2018-07-27T00:24:33.094Z,23.87
2018-07-27T00:25:43.168Z,23.9
2018-07-27T00:26:53.260Z,23.93
2018-07-27T00:28:03.330Z,23.89
2018-07-27T00:29:13.422Z,23.87
2018-07-27T00:30:23.237Z,23.9
2018-07-27T00:31:33.066Z,23.85
2018-07-27T00:32:43.143Z,23.89
2018-07-27T00:33:52.982Z,23.89
2018-07-27T00:35:02.797Z,23.82
2018-07-27T00:36:12.861Z,23.92
2018-07-27T00:37:22.678Z,23.89
2018-07-27T00:38:32.759Z,23.92
2018-07-27T00:39:42.855Z,23.9
2018-07-27T00:40:52.926Z,23.85
2018-07-27T00:42:03.146Z,23.85
2018-07-27T00:43:12.947Z,23.87
2018-07-27T00:44:22.749Z,23.85
2018-07-27T00:45:32.559Z,23.89
2018-07-27T00:46:42.376Z,23.89
2018-07-27T00:47:52.499Z,23.89
2018-07-27T00:49:02.331Z,23.85
2018-07-27T00:50:12.413Z,23.85
2018-07-27T00:51:22.479Z,23.87
2018-07-27T00:52:32.556Z,23.82
2018-07-27T00:53:42.640Z,23.85
2018-07-27T00:54:52.732Z,23.84
2018-07-27T00:56:02.557Z,23.82
2018-07-27T00:57:12.385Z,23.87
2018-07-27T00:58:22.464Z,23.85
2018-07-27T00:59:32.546Z,23.75
2018-07-27T01:00:42.378Z,23.78
2018-07-27T01:01:52.189Z,23.84
2018-07-27T01:03:02.254Z,23.79
2018-07-27T01:04:11.805Z,23.75
2018-07-27T01:05:21.665Z,23.77
2018-07-27T01:06:31.483Z,23.71
2018-07-27T01:07:41.543Z,23.72
2018-07-27T01:08:51.622Z,23.63
2018-07-27T01:10:01.701Z,23.72
2018-07-27T01:11:11.851Z,23.6
2018-07-27T01:12:21.942Z,23.57
2018-07-27T01:13:32.035Z,23.57
2018-07-27T01:14:41.863Z,23.63
2018-07-27T01:15:51.942Z,23.57
2018-07-27T01:17:02.027Z,23.57
2018-07-27T01:18:12.099Z,23.53
2018-07-27T01:19:21.927Z,23.56
2018-07-27T01:20:32.012Z,23.56
2018-07-27T01:21:42.099Z,23.53
2018-07-27T01:22:51.920Z,23.52
2018-07-27T01:24:01.977Z,23.62
2018-07-27T01:25:11.787Z,23.56
2018-07-27T01:26:21.850Z,23.53
2018-07-27T01:27:31.932Z,23.57
2018-07-27T01:28:42.230Z,23.55
2018-07-27T01:29:52.323Z,23.55
2018-07-27T01:31:02.392Z,23.47
2018-07-27T01:32:12.230Z,23.53
2018-07-27T01:33:22.036Z,23.44
2018-07-27T01:34:32.107Z,23.4
2018-07-27T01:35:42.178Z,23.45
2018-07-27T01:36:52.270Z,23.47
2018-07-27T01:38:02.352Z,23.42
2018-07-27T01:39:12.422Z,23.37
2018-07-27T01:40:22.492Z,23.37
2018-07-27T01:41:32.307Z,23.41
2018-07-27T01:42:42.376Z,23.38
2018-07-27T01:43:52.191Z,23.38
2018-07-27T01:45:02.258Z,23.29
2018-07-27T01:46:12.333Z,23.41
2018-07-27T01:47:22.407Z,23.4
2018-07-27T01:48:32.473Z,23.34
2018-07-27T01:49:42.282Z,23.38
2018-07-27T01:50:52.137Z,23.38
2018-07-27T01:52:02.472Z,23.4
2018-07-27T01:53:12.544Z,23.29
2018-07-27T01:54:22.620Z,23.34
2018-07-27T01:55:32.185Z,23.26
2018-07-27T01:56:42.348Z,23.26
2018-07-27T01:57:52.423Z,23.25
2018-07-27T01:59:02.506Z,23.24
2018-07-27T02:00:12.599Z,23.22
2018-07-27T02:01:22.684Z,23.26
2018-07-27T02:02:32.763Z,23.25
2018-07-27T02:03:42.572Z,23.22
2018-07-27T02:04:52.661Z,23.22
2018-07-27T02:06:02.987Z,23.18
2018-07-27T02:07:13.236Z,23.18
2018-07-27T02:08:23.315Z,23.24
2018-07-27T02:09:33.414Z,23.22
2018-07-27T02:10:42.980Z,23.26
2018-07-27T02:11:53.064Z,23.29
2018-07-27T02:13:03.348Z,23.24
2018-07-27T02:14:13.221Z,23.28
2018-07-27T02:15:23.399Z,23.22
2018-07-27T02:16:33.483Z,23.28
2018-07-27T02:17:43.035Z,23.28
2018-07-27T02:18:53.099Z,23.25
2018-07-27T02:20:02.647Z,23.24
2018-07-27T02:21:12.776Z,23.21
2018-07-27T02:22:22.572Z,23.25
2018-07-27T02:23:32.780Z,23.16
2018-07-27T02:24:43.001Z,23.21
2018-07-27T02:25:53.084Z,23.21
2018-07-27T02:27:03.160Z,23.15
2018-07-27T02:28:13.244Z,23.14
2018-07-27T02:29:23.312Z,23.16
2018-07-27T02:30:33.408Z,23.14
2018-07-27T02:31:43.493Z,23.15
2018-07-27T02:32:53.054Z,23.16
2018-07-27T02:34:02.732Z,23.12
2018-07-27T02:35:12.549Z,23.09
2018-07-27T02:36:22.380Z,23.1
2018-07-27T02:37:32.463Z,23.03
2018-07-27T02:38:42.532Z,23.06
2018-07-27T02:39:52.732Z,22.97
2018-07-27T02:41:03.006Z,22.89
2018-07-27T02:42:13.367Z,23.01
2018-07-27T02:43:23.459Z,22.96
2018-07-27T02:44:33.264Z,22.91
2018-07-27T02:45:43.345Z,22.89
2018-07-27T02:46:52.913Z,22.97
2018-07-27T02:48:02.471Z,22.91
2018-07-27T02:49:12.282Z,23.03
2018-07-27T02:50:22.358Z,22.91
2018-07-27T02:51:32.792Z,22.94
2018-07-27T02:52:42.892Z,22.89
2018-07-27T02:53:53.002Z,22.92
2018-07-27T02:55:02.809Z,22.89
2018-07-27T02:56:12.613Z,22.91
2018-07-27T02:57:22.197Z,22.88
2018-07-27T02:58:32.268Z,22.88
2018-07-27T02:59:42.348Z,22.89
2018-07-27T03:00:52.430Z,22.92
2018-07-27T03:02:02.504Z,22.94
2018-07-27T03:35:04.911Z,21.08
2018-07-27T03:36:14.203Z,21.08
2018-07-27T03:37:24.006Z,21.06
2018-07-27T03:38:33.829Z,21.21
2018-07-27T03:39:43.922Z,21.16
2018-07-27T03:40:53.746Z,21.18
2018-07-27T03:42:03.931Z,21.37
2018-07-27T03:43:14.210Z,21.49
2018-07-27T03:44:24.272Z,21.58
2018-07-27T03:45:34.343Z,21.59
2018-07-27T03:46:44.444Z,21.77
2018-07-27T03:47:53.995Z,21.83
2018-07-27T03:49:04.076Z,21.96
2018-07-27T03:50:14.150Z,22.15
2018-07-27T03:51:24.234Z,22.27
2018-07-27T03:52:34.352Z,22.39
2018-07-27T03:53:44.168Z,22.49
2018-07-27T03:54:54.480Z,22.67
2018-07-27T03:56:04.558Z,22.75
2018-07-27T03:57:14.630Z,22.75
2018-07-27T03:58:24.700Z,22.88
2018-07-27T03:59:34.782Z,22.99
2018-07-27T04:00:44.844Z,23.1
2018-07-27T04:01:54.663Z,23.14
2018-07-27T04:03:04.745Z,23.26
2018-07-27T04:04:14.869Z,23.37
2018-07-27T04:05:24.688Z,23.45
2018-07-27T04:06:34.768Z,23.55
2018-07-27T04:07:44.855Z,23.59
2018-07-27T04:08:54.929Z,23.71
2018-07-27T04:10:04.801Z,23.79
2018-07-27T04:11:14.904Z,23.84
2018-07-27T04:12:24.984Z,23.92
2018-07-27T04:13:34.798Z,23.89
2018-07-27T04:14:44.608Z,23.97
2018-07-27T04:15:55.079Z,24.03
2018-07-27T04:17:05.182Z,24.08
2018-07-27T04:18:15.258Z,24.15
2018-07-27T04:19:25.346Z,24.22
2018-07-27T04:20:35.438Z,24.29
2018-07-27T04:21:45.321Z,24.3
2018-07-27T04:22:55.117Z,24.37
2018-07-27T04:24:04.929Z,24.44
2018-07-27T04:25:15.015Z,24.32
2018-07-27T04:26:25.414Z,24.51
2018-07-27T04:27:35.686Z,24.89
2018-07-27T04:28:45.506Z,25.47
2018-07-27T04:29:55.578Z,25.57
2018-07-27T04:31:05.637Z,25.34
2018-07-27T04:32:15.201Z,25.27
2018-07-27T04:33:25.355Z,25.12
2018-07-27T04:34:35.464Z,25.05
2018-07-27T04:35:45.330Z,25.01
2018-07-27T04:36:55.758Z,24.96
2018-07-27T04:38:05.854Z,25.05
2018-07-27T04:39:15.989Z,25.14
2018-07-27T04:40:25.806Z,25.15
2018-07-27T04:41:35.882Z,25.27
2018-07-27T04:42:45.680Z,25.22
2018-07-27T04:43:55.808Z,25.14
2018-07-27T04:45:05.638Z,25.17
2018-07-27T04:46:15.723Z,25.23
2018-07-27T04:47:25.830Z,25.14
2018-07-27T04:48:35.913Z,25.17
2018-07-27T04:49:45.727Z,25.22
2018-07-27T04:50:55.823Z,25.33
2018-07-27T04:52:05.942Z,25.33
2018-07-27T04:53:15.472Z,25.45
2018-07-27T04:54:25.562Z,25.33
2018-07-27T04:55:35.639Z,25.45
2018-07-27T04:56:47.447Z,25.41
2018-07-27T04:58:00.343Z,25.56
2018-07-27T04:59:12.975Z,25.63
2018-07-27T05:00:26.281Z,25.57
2018-07-27T05:01:38.093Z,25.74
2018-07-27T05:02:48.232Z,25.79
2018-07-27T05:03:57.782Z,25.81
2018-07-27T05:05:07.884Z,25.86
2018-07-27T05:06:17.985Z,25.91
2018-07-27T05:07:27.838Z,25.97
2018-07-27T05:08:37.931Z,26.01
2018-07-27T05:09:48.004Z,26.03
2018-07-27T05:10:58.076Z,26.09
2018-07-27T05:12:08.150Z,26.16
2018-07-27T05:13:18.224Z,26.11
2018-07-27T05:14:27.785Z,26.26
2018-07-27T05:15:37.863Z,26.34
2018-07-27T05:16:47.964Z,26.41
2018-07-27T05:17:58.041Z,26.45
2018-07-27T05:19:07.857Z,26.49
2018-07-27T05:20:17.980Z,26.64
2018-07-27T05:21:27.897Z,26.67
2018-07-27T05:22:37.972Z,26.68
2018-07-27T05:23:48.047Z,26.76
2018-07-27T05:24:58.120Z,26.74
2018-07-27T05:26:08.201Z,26.87
2018-07-27T05:27:18.282Z,26.84
2018-07-27T05:28:28.361Z,26.94
2018-07-27T05:29:38.449Z,26.9
2018-07-27T05:30:48.581Z,26.89
2018-07-27T05:31:58.664Z,26.94
2018-07-27T05:33:08.741Z,26.99
2018-07-27T05:34:18.945Z,26.93
2018-07-27T05:35:29.215Z,26.91
2018-07-27T05:36:39.158Z,26.97
2018-07-27T05:37:48.963Z,26.96
2018-07-27T05:38:59.027Z,27.06
2018-07-27T05:40:08.838Z,27.13
2018-07-27T05:41:18.645Z,27.24
2018-07-27T05:42:28.717Z,27.37
2018-07-27T05:43:38.521Z,27.46
2018-07-27T05:44:48.605Z,27.52
2018-07-27T05:45:58.689Z,27.53
2018-07-27T05:47:09.134Z,27.66
2018-07-27T05:48:19.432Z,27.75
2018-07-27T05:49:29.536Z,27.71
2018-07-27T05:50:39.363Z,27.84
2018-07-27T05:51:49.443Z,27.84
2018-07-27T05:52:59.557Z,27.98
2018-07-27T05:54:09.668Z,27.96
2018-07-27T05:55:19.741Z,28.02
2018-07-27T05:56:29.822Z,28.11
2018-07-27T05:57:39.885Z,28.2
2018-07-27T05:58:49.999Z,28.16
2018-07-27T06:00:00.127Z,28.18
2018-07-27T06:01:10.037Z,28.2
2018-07-27T06:02:22.073Z,28.27
2018-07-27T06:03:32.258Z,28.33
2018-07-27T06:04:42.386Z,28.35
2018-07-27T06:05:52.526Z,28.46
2018-07-27T06:07:02.605Z,28.48
2018-07-27T06:08:12.430Z,28.48
2018-07-27T06:09:22.518Z,28.64
2018-07-27T06:10:32.323Z,28.7
2018-07-27T06:11:42.495Z,28.67
2018-07-27T06:12:52.374Z,28.72
2018-07-27T06:14:02.454Z,28.78
2018-07-27T06:15:12.555Z,28.78
2018-07-27T06:16:22.451Z,28.79
2018-07-27T06:17:32.541Z,28.9
2018-07-27T06:18:42.368Z,28.88
2018-07-27T06:19:52.191Z,28.88
2018-07-27T06:21:02.466Z,28.91
2018-07-27T06:22:12.428Z,28.86
2018-07-27T06:23:22.520Z,28.86
2018-07-27T06:24:32.457Z,28.91
2018-07-27T06:25:42.792Z,28.82
2018-07-27T06:26:52.998Z,28.83
2018-07-27T06:28:03.117Z,28.78
2018-07-27T06:29:13.363Z,28.83
2018-07-27T06:30:23.545Z,28.86
2018-07-27T06:31:33.621Z,28.83
2018-07-27T06:32:43.717Z,28.85
2018-07-27T06:33:53.792Z,28.91
2018-07-27T06:35:03.868Z,28.9
2018-07-27T06:36:13.957Z,28.9
2018-07-27T06:37:23.533Z,28.85
2018-07-27T06:38:33.622Z,28.95
2018-07-27T06:39:43.713Z,28.98
2018-07-27T06:40:53.796Z,29.03
2018-07-27T06:42:03.889Z,29.11
2018-07-27T06:43:13.971Z,29.35
2018-07-27T06:44:23.795Z,29.45
2018-07-27T06:45:33.907Z,29.51
2018-07-27T06:46:43.989Z,29.55
2018-07-27T06:47:54.067Z,29.61
2018-07-27T06:49:04.174Z,29.63
2018-07-27T06:50:14.273Z,29.66
2018-07-27T06:51:23.842Z,29.63
2018-07-27T06:52:34.297Z,29.73
2018-07-27T06:53:44.437Z,29.81
2018-07-27T06:54:54.516Z,29.89
2018-07-27T06:56:04.379Z,29.88
2018-07-27T06:57:14.474Z,29.92
2018-07-27T06:58:24.655Z,30.03
2018-07-27T06:59:34.750Z,29.98
2018-07-27T07:00:44.577Z,30.07
2018-07-27T07:01:54.658Z,30.21
2018-07-27T07:03:04.772Z,30.31
2018-07-27T07:04:14.392Z,30.4
2018-07-27T07:05:23.937Z,30.48
2018-07-27T07:06:33.768Z,30.66
2018-07-27T07:07:43.631Z,30.7
2018-07-27T07:08:53.734Z,30.71
2018-07-27T07:10:03.824Z,30.79
2018-07-27T07:11:13.906Z,30.96
2018-07-27T07:12:23.709Z,31.07
2018-07-27T07:13:33.806Z,31.25
2018-07-27T07:14:43.647Z,31.31
2018-07-27T07:15:53.841Z,31.45
2018-07-27T07:17:03.936Z,31.49
2018-07-27T07:18:14.021Z,31.53
2018-07-27T07:19:24.120Z,31.63
2018-07-27T07:20:33.670Z,31.7
2018-07-27T07:21:43.794Z,31.81
2018-07-27T07:22:53.619Z,31.94
2018-07-27T07:24:03.432Z,32.03
2018-07-27T07:25:13.887Z,32.1
2018-07-27T07:26:24.379Z,32.28
2018-07-27T07:27:34.503Z,32.39
2018-07-27T07:28:44.323Z,32.38
2018-07-27T07:29:54.140Z,32.39
2018-07-27T07:31:04.221Z,32.52
2018-07-27T07:32:14.031Z,32.53
2018-07-27T07:33:24.121Z,32.61
2018-07-27T07:34:34.199Z,32.74
2018-07-27T07:35:44.302Z,32.93
2018-07-27T07:36:54.150Z,33.06
2018-07-27T07:38:04.241Z,33.17
2018-07-27T07:39:13.942Z,33.31
2018-07-27T07:40:24.208Z,33.34
2018-07-27T07:41:34.335Z,33.23
2018-07-27T07:42:44.427Z,33.29
2018-07-27T07:43:54.870Z,33.36
2018-07-27T07:45:04.994Z,33.46
2018-07-27T07:46:15.393Z,33.47
2018-07-27T07:47:25.498Z,33.59
2018-07-27T07:48:35.640Z,33.71
2018-07-27T07:49:45.738Z,33.92
2018-07-27T07:50:55.854Z,34
2018-07-27T07:52:05.688Z,34.11
2018-07-27T07:53:15.798Z,34.08
2018-07-27T07:54:25.375Z,34.03
2018-07-27T07:55:35.472Z,34.22
2018-07-27T07:56:45.582Z,34.24
2018-07-27T07:57:55.679Z,34.24
2018-07-27T07:59:05.772Z,34.32
2018-07-27T08:00:15.382Z,34.27
2018-07-27T08:01:25.216Z,34.22
2018-07-27T08:02:35.336Z,34.19
2018-07-27T08:03:45.427Z,34.36
2018-07-27T08:04:55.529Z,34.36
2018-07-27T08:06:05.920Z,34.41
2018-07-27T08:07:16.034Z,34.54
2018-07-27T08:08:25.869Z,34.54
2018-07-27T08:09:35.540Z,34.45
2018-07-27T08:10:45.633Z,34.46
2018-07-27T08:11:55.823Z,34.37
2018-07-27T08:13:05.640Z,34.39
2018-07-27T08:14:15.779Z,34.52
2018-07-27T08:15:25.865Z,34.4
2018-07-27T08:16:35.938Z,34.37
2018-07-27T08:17:45.774Z,34.19
2018-07-27T08:18:55.865Z,34.1
2018-07-27T08:20:05.983Z,34.06
2018-07-27T08:21:16.159Z,33.95
2018-07-27T08:22:26.275Z,33.71
2018-07-27T08:23:36.383Z,33.46
2018-07-27T08:24:46.470Z,33.31
2018-07-27T08:25:56.737Z,33.02
2018-07-27T08:27:06.839Z,32.86
2018-07-27T08:28:16.660Z,32.67
2018-07-27T08:29:26.744Z,32.47
2018-07-27T08:30:36.849Z,32.47
2018-07-27T08:31:46.942Z,32.39
2018-07-27T08:32:57.015Z,32.39
2018-07-27T08:34:07.080Z,32.3
2018-07-27T08:35:17.174Z,32.06
2018-07-27T08:36:27.247Z,32.06
2018-07-27T08:37:36.805Z,32.12
2018-07-27T08:38:46.894Z,32.05
2018-07-27T08:39:57.028Z,31.93
2018-07-27T08:41:07.115Z,31.97
2018-07-27T08:42:16.684Z,31.8
2018-07-27T08:43:26.778Z,31.86
2018-07-27T08:44:36.901Z,32.09
2018-07-27T08:45:47.005Z,32.15
2018-07-27T08:46:57.079Z,32.24
2018-07-27T08:48:07.181Z,32.3
2018-07-27T08:49:17.274Z,32.23
2018-07-27T08:50:27.163Z,32.2
2018-07-27T08:51:37.254Z,32.23
2018-07-27T08:52:47.348Z,32.25
2018-07-27T08:53:57.465Z,32.2
2018-07-27T08:55:07.307Z,32.23
2018-07-27T08:56:17.570Z,32.2
2018-07-27T08:57:28.210Z,32.17
2018-07-27T08:58:38.312Z,32.13
2018-07-27T08:59:48.399Z,32.15
2018-07-27T09:00:58.498Z,32.16
2018-07-27T09:02:08.587Z,32.2
2018-07-27T09:03:18.686Z,32.38
2018-07-27T09:04:28.781Z,32.38
2018-07-27T09:05:38.881Z,32.35
2018-07-27T09:06:48.978Z,32.38
2018-07-27T09:07:59.135Z,32.34
2018-07-27T09:09:09.471Z,32.39
2018-07-27T09:10:19.713Z,32.43
2018-07-27T09:11:29.878Z,32.49
2018-07-27T09:12:39.697Z,32.5
2018-07-27T09:13:49.791Z,32.53
2018-07-27T09:14:59.685Z,32.47
2018-07-27T09:16:09.797Z,32.47
2018-07-27T09:17:19.988Z,32.46
2018-07-27T09:18:30.277Z,32.45
2018-07-27T09:19:40.177Z,32.46
2018-07-27T09:20:50.263Z,32.45
2018-07-27T09:22:00.361Z,32.37
2018-07-27T09:23:10.178Z,32.35
2018-07-27T09:24:20.750Z,32.38
2018-07-27T09:25:31.937Z,32.42
2018-07-27T09:26:42.049Z,32.38
2018-07-27T09:27:52.191Z,32.28
2018-07-27T09:29:02.023Z,32.39
2018-07-27T09:30:12.116Z,32.43
2018-07-27T09:31:22.204Z,32.38
2018-07-27T09:32:32.304Z,32.42
2018-07-27T09:33:42.402Z,32.45
2018-07-27T09:34:52.505Z,32.38
2018-07-27T09:36:02.583Z,32.47
2018-07-27T09:37:12.690Z,32.46
2018-07-27T09:38:22.797Z,32.56
2018-07-27T09:39:32.373Z,32.65
2018-07-27T09:40:42.710Z,32.57
2018-07-27T09:41:52.819Z,32.57
2018-07-27T09:43:02.949Z,32.59
2018-07-27T09:44:12.834Z,32.61
2018-07-27T09:45:22.935Z,32.68
2018-07-27T09:46:33.189Z,32.64
2018-07-27T09:47:43.517Z,32.79
2018-07-27T09:48:53.626Z,32.75
2018-07-27T09:50:03.723Z,32.47
2018-07-27T09:51:13.569Z,32.53
2018-07-27T09:52:23.407Z,32.64
2018-07-27T09:53:33.535Z,32.72
2018-07-27T09:54:43.613Z,32.71
2018-07-27T09:55:53.715Z,32.81
2018-07-27T09:57:03.815Z,32.83
2018-07-27T09:58:15.673Z,32.9
2018-07-27T09:59:27.846Z,33.05
2018-07-27T10:00:39.547Z,33.17
2018-07-27T10:01:49.397Z,33.16
2018-07-27T10:02:59.486Z,33.26
2018-07-27T10:04:09.601Z,33.24
2018-07-27T10:05:19.417Z,33.24
2018-07-27T10:06:29.558Z,33.24
2018-07-27T10:07:39.654Z,33.31
2018-07-27T10:08:49.491Z,33.28
2018-07-27T10:09:59.592Z,33.28
2018-07-27T10:11:09.164Z,33.23
2018-07-27T10:12:19.266Z,33.32
2018-07-27T10:13:29.107Z,33.31
2018-07-27T10:14:38.939Z,33.37
2018-07-27T10:15:49.042Z,33.43
2018-07-27T10:16:59.134Z,32.99
2018-07-27T10:18:09.288Z,32.98
2018-07-27T10:19:18.578Z,33.12
2018-07-27T10:20:28.804Z,33.24
2018-07-27T10:21:38.900Z,33.32
2018-07-27T10:22:48.996Z,33.32
2018-07-27T10:23:58.868Z,33.4
2018-07-27T10:25:09.025Z,33.53
2018-07-27T10:26:19.149Z,33.28
2018-07-27T10:27:28.986Z,33.26
2018-07-27T10:28:38.586Z,33.09
2018-07-27T10:29:48.682Z,32.99
2018-07-27T10:30:58.772Z,32.87
2018-07-27T10:32:08.854Z,32.96
2018-07-27T10:33:18.419Z,32.89
2018-07-27T10:34:28.248Z,32.54
2018-07-27T10:35:38.393Z,32.31
2018-07-27T10:36:48.489Z,32.16
2018-07-27T10:37:58.571Z,32.35
2018-07-27T10:39:08.675Z,32.71
2018-07-27T10:40:18.771Z,32.86
2018-07-27T10:41:28.929Z,33.17
2018-07-27T10:42:39.019Z,33.39
2018-07-27T10:43:48.854Z,33.55
2018-07-27T10:44:59.260Z,33.69
2018-07-27T10:46:09.022Z,33.84
2018-07-27T10:47:18.847Z,33.97
2018-07-27T10:48:28.944Z,33.89
2018-07-27T10:49:39.123Z,34.02
2018-07-27T10:50:49.278Z,34.08
2018-07-27T10:51:59.389Z,34.11
2018-07-27T10:53:09.212Z,34.12
2018-07-27T10:54:19.300Z,34.24
2018-07-27T10:55:29.395Z,34.33
2018-07-27T10:56:39.529Z,34.55
2018-07-27T10:57:49.371Z,34.64
2018-07-27T10:58:59.449Z,34.71
2018-07-27T11:00:09.572Z,34.86
2018-07-27T11:01:19.660Z,34.9
2018-07-27T11:02:30.103Z,34.66
2018-07-27T11:03:40.319Z,34.78
2018-07-27T11:04:50.388Z,35.05
2018-07-27T11:06:00.485Z,35.12
2018-07-27T11:07:10.325Z,35.12
2018-07-27T11:08:20.412Z,35.01
2018-07-27T11:09:30.525Z,35.15
2018-07-27T11:10:40.666Z,34.87
2018-07-27T11:11:50.773Z,34.52
2018-07-27T11:13:00.860Z,34.77
2018-07-27T11:14:10.926Z,35.12
2018-07-27T11:15:21.174Z,35.38
2018-07-27T11:16:31.537Z,35.69
2018-07-27T11:17:41.881Z,36.08
2018-07-27T11:18:51.850Z,36.25
2018-07-27T11:20:01.927Z,36.33
2018-07-27T11:21:11.786Z,36.33
2018-07-27T11:22:21.674Z,36.4
2018-07-27T11:23:31.760Z,36.37
2018-07-27T11:24:41.844Z,36.05
2018-07-27T11:25:51.920Z,35.58
2018-07-27T11:27:02.016Z,35.39
2018-07-27T11:28:12.128Z,35.27
2018-07-27T11:29:21.963Z,35.02
2018-07-27T11:30:32.038Z,34.96
2018-07-27T11:31:42.106Z,35.02
2018-07-27T11:32:52.217Z,35.18
2018-07-27T11:34:02.326Z,35.61
2018-07-27T11:35:12.416Z,36.21
2018-07-27T11:36:22.518Z,36.4
2018-07-27T11:37:32.781Z,36.43
2018-07-27T11:38:42.877Z,35.89
2018-07-27T11:39:53.003Z,35.45
2018-07-27T11:41:02.568Z,35.09
2018-07-27T11:42:12.811Z,34.66
2018-07-27T11:43:23.092Z,34.33
2018-07-27T11:44:32.670Z,34.12
2018-07-27T11:45:42.753Z,33.84
2018-07-27T11:46:52.858Z,33.59
2018-07-27T11:48:02.938Z,33.53
2018-07-27T11:49:13.027Z,33.46
2018-07-27T11:50:23.143Z,33.46
2018-07-27T11:51:33.250Z,33.62
2018-07-27T11:52:43.068Z,33.96
2018-07-27T11:53:52.628Z,34.33
2018-07-27T11:55:02.724Z,34.81
2018-07-27T11:56:12.830Z,35.2
2018-07-27T11:57:22.960Z,35.43
2018-07-27T11:58:33.058Z,35.74
2018-07-27T11:59:42.623Z,36.09
2018-07-27T12:00:52.435Z,36.3
2018-07-27T12:02:02.542Z,36.4
2018-07-27T12:03:12.355Z,36.44
2018-07-27T12:04:22.455Z,36.34
2018-07-27T12:05:32.543Z,35.77
2018-07-27T12:06:42.380Z,35.55
2018-07-27T12:07:52.491Z,35.68
2018-07-27T12:09:02.587Z,35.8
2018-07-27T12:10:12.668Z,35.76
2018-07-27T12:11:22.760Z,35.38
2018-07-27T12:12:32.589Z,35.12
2018-07-27T12:13:42.744Z,34.79
2018-07-27T12:14:53.884Z,34.51
2018-07-27T12:16:04.737Z,34.29
2018-07-27T12:17:14.843Z,34.33
2018-07-27T12:18:24.927Z,34.19
2018-07-27T12:19:35.026Z,34.41
2018-07-27T12:20:44.984Z,34.81
2018-07-27T12:21:54.951Z,35.33
2018-07-27T12:23:04.786Z,35.64
2018-07-27T12:24:14.911Z,35.98
2018-07-27T12:25:24.985Z,36.28
2018-07-27T12:26:34.823Z,36.52
2018-07-27T12:27:44.907Z,36.71
2018-07-27T12:28:54.747Z,36.84
2018-07-27T12:30:04.596Z,36.83
2018-07-27T12:31:14.416Z,36.74
2018-07-27T12:32:24.334Z,36.81
2018-07-27T12:33:34.440Z,36.93
2018-07-27T12:34:44.326Z,36.97
2018-07-27T12:35:54.434Z,37.04
2018-07-27T12:37:04.518Z,37.15
2018-07-27T12:38:14.365Z,37.24
2018-07-27T12:39:24.453Z,37.19
2018-07-27T12:40:34.268Z,36.92
2018-07-27T12:41:44.368Z,36.51
2018-07-27T12:42:54.192Z,36.44
2018-07-27T12:44:04.281Z,36.53
2018-07-27T12:45:14.381Z,36.74
2018-07-27T12:46:24.497Z,36.73
2018-07-27T12:47:34.312Z,36.8
2018-07-27T12:48:44.406Z,36.9
2018-07-27T12:49:54.554Z,37.17
2018-07-27T12:51:04.391Z,37.24
2018-07-27T12:52:14.517Z,37.24
2018-07-27T12:53:24.330Z,37.33
2018-07-27T12:54:34.416Z,37.56
2018-07-27T12:55:44.524Z,37.57
2018-07-27T12:56:54.593Z,37.48
2018-07-27T12:58:04.447Z,37.31
2018-07-27T12:59:14.525Z,37.22
2018-07-27T13:00:24.685Z,36.89
2018-07-27T13:01:34.776Z,36.62
2018-07-27T13:02:44.864Z,36.32
2018-07-27T13:03:54.688Z,36.14
2018-07-27T13:05:04.858Z,35.72
2018-07-27T13:06:15.095Z,35.6
2018-07-27T13:07:24.949Z,35.39
2018-07-27T13:08:35.037Z,35.39
2018-07-27T13:09:44.869Z,35.21
2018-07-27T13:10:54.793Z,35.12
2018-07-27T13:12:04.956Z,34.96
2018-07-27T13:13:15.168Z,34.86
2018-07-27T13:14:25.405Z,34.79
2018-07-27T13:15:35.507Z,34.64
2018-07-27T13:16:45.339Z,34.64
2018-07-27T13:17:55.428Z,34.84
2018-07-27T13:19:05.547Z,35.18
2018-07-27T13:20:15.631Z,35.35
2018-07-27T13:21:25.718Z,35.53
2018-07-27T13:22:35.931Z,35.5
2018-07-27T13:23:46.037Z,35.26
2018-07-27T13:25:02.454Z,35.12
2018-07-27T13:26:27.454Z,35.34
2018-07-27T13:27:37.684Z,34.96
2018-07-27T13:28:47.805Z,34.87
2018-07-27T13:29:57.896Z,34.56
2018-07-27T13:31:08.009Z,34.37
2018-07-27T13:32:17.832Z,34.3
2018-07-27T13:33:27.922Z,34.11
2018-07-27T13:35:48.288Z,33.85
2018-07-27T13:36:58.439Z,33.8
2018-07-27T13:38:08.563Z,33.62
2018-07-27T13:39:18.720Z,33.58
2018-07-27T13:40:28.831Z,33.52
2018-07-27T13:41:38.990Z,33.48
2018-07-27T13:42:49.135Z,33.37
2018-07-27T13:43:59.228Z,33.41
2018-07-27T13:45:09.319Z,33.43
2018-07-27T13:46:19.415Z,33.47
2018-07-27T13:47:29.581Z,33.4
2018-07-27T13:48:39.679Z,33.29
2018-07-27T13:49:49.773Z,33.31
2018-07-27T13:50:59.879Z,33.26
2018-07-27T13:52:09.990Z,33.26
2018-07-27T13:53:19.865Z,33.62
2018-07-27T13:54:30.142Z,33.95
2018-07-27T13:55:40.288Z,34.11
2018-07-27T13:56:50.387Z,34.34
2018-07-27T13:58:00.474Z,34.48
2018-07-27T13:59:10.795Z,34.61
2018-07-27T14:00:20.887Z,34.78
2018-07-27T14:01:30.990Z,34.86
2018-07-27T14:02:40.846Z,35.01
2018-07-27T14:03:50.929Z,35.13
2018-07-27T14:05:01.030Z,35.21
2018-07-27T14:06:10.861Z,35.35
2018-07-27T14:07:20.953Z,35.31
2018-07-27T14:08:31.101Z,35.35
2018-07-27T14:09:41.211Z,35.28
2018-07-27T14:10:51.292Z,35.13
2018-07-27T14:12:01.396Z,35.05
2018-07-27T14:13:11.480Z,35.18
2018-07-27T14:14:21.467Z,35.18
2018-07-27T14:15:31.693Z,35.35
2018-07-27T14:16:41.782Z,35.34
2018-07-27T14:17:51.886Z,35.43
2018-07-27T14:19:01.976Z,35.57
2018-07-27T14:20:11.798Z,35.53
2018-07-27T14:21:21.888Z,35.55
2018-07-27T14:22:32.267Z,35.6
2018-07-27T14:23:42.375Z,35.58
2018-07-27T14:24:52.643Z,35.58
2018-07-27T14:26:02.215Z,35.65
2018-07-27T14:27:12.316Z,35.64
2018-07-27T14:28:22.421Z,35.65
2018-07-27T14:29:32.584Z,35.55
2018-07-27T14:30:42.679Z,35.65
2018-07-27T14:31:52.785Z,35.64
2018-07-27T14:33:02.887Z,35.72
2018-07-27T14:34:13.034Z,35.69
2018-07-27T14:35:23.168Z,35.69
2018-07-27T14:36:33.254Z,35.8
2018-07-27T14:37:43.358Z,35.8
2018-07-27T14:38:53.179Z,35.79
2018-07-27T14:40:03.278Z,35.98
2018-07-27T14:41:13.389Z,35.98
2018-07-27T14:42:22.961Z,36.08
2018-07-27T14:43:32.800Z,36.17
2018-07-27T14:44:42.888Z,36.18
2018-07-27T14:45:53.040Z,36.24
2018-07-27T14:47:02.365Z,36.17
2018-07-27T14:48:12.570Z,35.9
2018-07-27T14:49:22.700Z,35.82
2018-07-27T14:50:32.782Z,35.69
2018-07-27T14:51:42.912Z,35.62
2018-07-27T14:52:53.274Z,35.47
2018-07-27T14:54:02.889Z,35.49
2018-07-27T14:55:12.999Z,35.38
2018-07-27T14:56:23.101Z,35.43
2018-07-27T14:57:33.237Z,35.33
2018-07-27T14:58:43.421Z,35.3
2018-07-27T14:59:53.507Z,35.27
2018-07-27T15:01:03.382Z,35.21
2018-07-27T15:02:13.487Z,35.15
2018-07-27T15:03:23.720Z,35.26
2018-07-27T15:04:33.573Z,35.3
2018-07-27T15:05:43.707Z,35.34
2018-07-27T15:06:53.526Z,35.35
2018-07-27T15:08:03.363Z,35.45
2018-07-27T15:09:13.521Z,35.52
2018-07-27T15:10:23.623Z,35.76
2018-07-27T15:11:33.478Z,35.94
2018-07-27T15:12:43.594Z,36.12
2018-07-27T15:13:53.693Z,36.19
2018-07-27T15:15:04.109Z,35.96
2018-07-27T15:16:14.472Z,35.82
2018-07-27T15:17:26.762Z,35.58
2018-07-27T15:18:40.178Z,35.5
2018-07-27T15:19:51.139Z,35.58
2018-07-27T15:21:01.758Z,35.47
2018-07-27T15:22:12.157Z,35.45
2018-07-27T15:23:22.748Z,35.58
2018-07-27T15:24:33.330Z,35.45
2018-07-27T15:25:44.459Z,35.43
2018-07-27T15:26:54.917Z,35.31
2018-07-27T15:28:05.813Z,35.2
2018-07-27T15:29:16.577Z,35.04
2018-07-27T15:30:26.987Z,35.11
2018-07-27T15:31:37.602Z,35.3
2018-07-27T15:32:49.163Z,35.34
2018-07-27T15:33:59.579Z,35.47
2018-07-27T15:35:10.463Z,35.43
2018-07-27T15:36:20.876Z,35.24
2018-07-27T15:37:31.563Z,35.3